createdAt,value
2023-03-10T20:03:56.886Z,12.95
2023-03-10T20:06:24.721Z,11.88
2023-03-10T20:08:52.100Z,12.40
2023-03-10T20:11:19.823Z,18.23
2023-03-10T20:13:47.510Z,11.82
2023-03-10T20:16:15.390Z,12.10
2023-03-10T20:18:42.753Z,12.77
2023-03-10T20:21:10.761Z,12.48
2023-03-10T20:23:38.355Z,16.20
2023-03-10T20:26:09.603Z,23.55
2023-03-10T20:28:37.381Z,14.60
2023-03-10T20:31:04.771Z,13.88
2023-03-10T20:33:32.122Z,17.50
2023-03-10T20:35:59.838Z,14.80
2023-03-10T20:38:27.290Z,11.07
2023-03-10T20:40:54.610Z,10.85
2023-03-10T20:43:22.191Z,8.82
2023-03-10T20:45:51.496Z,8.60
2023-03-10T20:48:18.975Z,8.57
2023-03-10T20:50:46.557Z,7.43
2023-03-10T20:53:13.864Z,9.23
2023-03-10T20:55:41.244Z,10.20
2023-03-10T20:58:08.870Z,14.73
2023-03-10T21:00:36.245Z,16.55
2023-03-10T21:03:03.590Z,14.18
2023-03-10T21:05:31.161Z,13.70
2023-03-10T21:07:58.512Z,12.20
2023-03-10T21:10:26.608Z,8.45
2023-03-10T21:12:54.238Z,14.02
2023-03-10T21:15:21.579Z,10.68
2023-03-10T21:17:48.986Z,11.02
2023-03-10T21:20:18.909Z,11.32
2023-03-10T21:22:46.449Z,7.43
2023-03-10T21:25:16.491Z,10.10
2023-03-10T21:27:46.763Z,9.32
2023-03-10T21:30:14.321Z,9.07
2023-03-10T21:32:41.672Z,11.55
2023-03-10T21:35:12.627Z,10.73
2023-03-10T21:37:46.707Z,12.52
2023-03-10T21:40:15.161Z,10.23
2023-03-10T21:42:42.536Z,9.75
2023-03-10T21:45:12.603Z,13.85
2023-03-10T21:47:40.225Z,9.57
2023-03-10T21:50:08.624Z,14.05
2023-03-10T21:52:36.200Z,11.05
2023-03-10T21:55:03.914Z,18.58
2023-03-10T21:57:31.239Z,12.00
2023-03-10T21:59:58.579Z,15.85
2023-03-10T22:02:28.154Z,12.05
2023-03-10T22:04:55.953Z,12.68
2023-03-10T22:07:23.349Z,10.93
2023-03-10T22:09:50.785Z,10.95
2023-03-10T22:12:18.630Z,12.45
2023-03-10T22:14:47.443Z,7.43
2023-03-10T22:17:14.856Z,6.62
2023-03-10T22:19:42.455Z,7.32
2023-03-10T22:22:09.816Z,4.82
2023-03-10T22:24:37.116Z,9.75
2023-03-10T22:27:05.602Z,9.85
2023-03-10T22:29:32.917Z,6.72
2023-03-10T22:32:00.294Z,8.73
2023-03-10T22:34:27.869Z,5.32
2023-03-10T22:36:55.225Z,6.07
2023-03-10T22:39:23.311Z,8.77
2023-03-10T22:41:50.935Z,8.18
2023-03-10T22:44:18.482Z,11.90
2023-03-10T22:46:46.619Z,6.05
2023-03-10T22:49:14.303Z,7.12
2023-03-10T22:51:41.732Z,7.03
2023-03-10T22:54:09.069Z,7.05
2023-03-10T22:56:36.641Z,5.03
2023-03-10T22:59:04.447Z,5.40
2023-03-10T23:01:31.896Z,7.35
2023-03-10T23:03:59.600Z,6.45
2023-03-10T23:06:29.197Z,5.45
2023-03-10T23:08:56.881Z,5.93
2023-03-10T23:11:24.539Z,10.77
2023-03-10T23:13:51.900Z,5.03
2023-03-10T23:16:19.856Z,4.15
2023-03-10T23:18:47.567Z,2.60
2023-03-10T23:21:14.898Z,5.12
2023-03-10T23:23:43.764Z,2.67
2023-03-10T23:26:11.614Z,2.28
2023-03-10T23:28:38.979Z,3.05
2023-03-10T23:31:06.914Z,2.40
2023-03-10T23:33:34.582Z,3.08
2023-03-10T23:36:01.916Z,2.67
2023-03-10T23:38:29.348Z,2.53
2023-03-10T23:40:56.991Z,1.92
2023-03-10T23:43:24.331Z,1.87
2023-03-10T23:45:51.758Z,4.40
2023-03-10T23:48:19.887Z,2.00
2023-03-10T23:50:47.608Z,2.10
2023-03-10T23:53:15.624Z,2.90
2023-03-10T23:55:44.488Z,5.22
2023-03-10T23:58:12.964Z,2.00
